Time;durP1;ratioP1;P1;durP2;ratioP2;P2;SDS_P1;SDS_P2;PMS_P1;PMS_P2;Temp;Humidity;BMP_temperature;BMP_pressure;BME280_temperature;BME280_humidity;BME280_pressure;Samples;Min_cycle;Max_cycle;Signal;HPM_P1;HPM_P2
2022/08/05 06:21:00;;;;;;;6.88;3.10;;;;;;;25.30;53.57;96553.38;2116410;27;20548;-64
2022/08/05 06:22:03;;;;;;;5.68;3.47;;;;;;;25.42;53.62;96555.59;2115394;28;20235;-65
2022/08/05 06:23:06;;;;;;;9.60;3.60;;;;;;;25.50;53.86;96564.63;2100185;28;20241;-65
2022/08/05 06:24:08;;;;;;;8.85;3.35;;;;;;;25.42;53.83;96562.78;2101181;28;20207;-65
2022/08/05 06:25:13;;;;;;;7.25;3.30;;;;;;;25.46;53.30;96565.94;2100224;28;20188;-65
2022/08/05 06:26:34;;;;;;;5.95;2.97;;;;;;;25.48;53.45;96554.09;2097491;28;20203;-65
2022/08/05 06:27:36;;;;;;;8.77;3.13;;;;;;;25.68;52.94;96569.84;2096887;28;20231;-65
2022/08/05 06:28:58;;;;;;;13.52;3.20;;;;;;;25.47;53.34;96568.47;2095118;28;20215;-65
2022/08/05 06:30:04;;;;;;;23.48;3.67;;;;;;;25.44;53.48;96568.78;2099735;28;20246;-65
2022/08/05 06:31:21;;;;;;;11.07;2.95;;;;;;;25.39;52.26;96571.94;2097759;28;20238;-65
2022/08/05 06:32:32;;;;;;;8.25;3.22;;;;;;;25.40;51.99;96570.94;2099291;28;20215;-66
2022/08/05 06:33:33;;;;;;;4.20;2.25;;;;;;;25.37;51.71;96557.06;2095640;28;20196;-65
2022/08/05 06:34:57;;;;;;;6.22;2.25;;;;;;;25.53;51.52;96567.78;2094418;28;20227;-66
2022/08/05 06:35:58;;;;;;;5.22;2.30;;;;;;;25.45;51.12;96564.28;2095208;28;20203;-65
2022/08/05 06:37:10;;;;;;;11.38;2.20;;;;;;;25.42;51.45;96562.78;2094394;28;20777;-65
2022/08/05 06:38:12;;;;;;;3.53;2.00;;;;;;;25.38;51.13;96559.59;2097585;28;20639;-65
2022/08/05 06:39:14;;;;;;;5.88;2.55;;;;;;;25.31;50.86;96569.22;2100577;28;20689;-65
2022/08/05 07:11:50;;;;;;;4.32;2.58;;;;;;;26.71;45.78;96624.66;2099728;27;21095;-65
2022/08/05 07:17:05;;;;;;;4.90;2.35;;;;;;;26.56;46.67;96627.19;2075481;28;20251;-66
2022/08/05 07:18:26;;;;;;;5.68;1.65;;;;;;;26.83;46.25;96634.03;2075561;28;20210;-65
2022/08/05 07:19:31;;;;;;;4.00;1.80;;;;;;;26.77;45.95;96637.41;2073910;28;20197;-66
2022/08/05 07:20:53;;;;;;;4.68;1.90;;;;;;;26.85;45.58;96632.00;2077522;28;20225;-65
2022/08/05 07:21:55;;;;;;;6.03;1.90;;;;;;;26.88;45.48;96638.88;2077141;28;20198;-65
2022/08/05 07:23:01;;;;;;;5.80;2.08;;;;;;;26.84;45.59;96641.09;2068582;28;20257;-66
2022/08/05 07:24:05;;;;;;;3.38;2.03;;;;;;;26.90;45.32;96639.53;2067568;28;20742;-66
2022/08/05 07:25:11;;;;;;;4.63;2.10;;;;;;;26.99;45.30;96643.03;2068603;28;20204;-65
2022/08/05 07:26:33;;;;;;;3.70;1.65;;;;;;;26.93;45.62;96636.53;2067038;28;20670;-66
2022/08/05 07:27:34;;;;;;;3.78;1.70;;;;;;;27.11;45.14;96638.13;2066210;28;20219;-65
2022/08/05 07:28:56;;;;;;;5.93;2.20;;;;;;;26.98;45.22;96626.16;2065080;28;20723;-67
2022/08/05 07:30:00;;;;;;;3.20;1.50;;;;;;;27.20;44.86;96645.16;2066458;28;20284;-64
2022/08/05 07:31:23;;;;;;;2.80;1.90;;;;;;;27.38;43.90;96636.88;2063425;28;20265;-67
2022/08/05 07:32:44;;;;;;;3.97;1.75;;;;;;;27.47;44.58;96640.38;2065420;28;20223;-66
2022/08/05 07:33:53;;;;;;;5.15;1.92;;;;;;;27.61;44.19;96642.31;2066543;28;20398;-66
2022/08/05 07:35:00;;;;;;;2.47;1.45;;;;;;;27.63;43.68;96639.44;2065663;28;20249;-67
2022/08/05 07:36:21;;;;;;;4.97;1.90;;;;;;;27.85;44.03;96644.00;2067481;28;20209;-67
2022/08/05 07:37:23;;;;;;;2.20;1.40;;;;;;;27.93;42.97;96634.25;2068222;28;20224;-67
2022/08/05 07:38:36;;;;;;;8.27;2.00;;;;;;;28.17;43.12;96634.06;2067927;28;20244;-66
2022/08/05 07:39:44;;;;;;;6.68;1.70;;;;;;;28.27;42.87;96643.75;2066958;28;20265;-66
2022/08/05 07:41:08;;;;;;;3.75;1.50;;;;;;;27.86;43.45;96651.03;2067999;28;20210;-67
2022/08/05 07:42:30;;;;;;;2.35;1.15;;;;;;;28.06;43.31;96637.22;2070756;28;20223;-68
2022/08/05 07:43:36;;;;;;;2.92;1.55;;;;;;;28.17;43.17;96641.31;2077659;28;20213;-67
2022/08/05 07:44:38;;;;;;;8.00;1.80;;;;;;;28.26;42.10;96647.44;2077751;28;20772;-67
2022/08/05 07:45:42;;;;;;;3.20;1.58;;;;;;;28.17;42.80;96649.34;2075186;28;20200;-70
2022/08/05 07:46:58;;;;;;;5.85;1.60;;;;;;;28.24;42.80;96649.47;2072115;28;20651;-67
2022/08/05 07:48:00;;;;;;;4.60;1.35;;;;;;;28.15;42.76;96646.00;2074477;28;20197;-68
2022/08/05 07:49:03;;;;;;;5.95;1.10;;;;;;;28.39;42.08;96645.00;2075912;28;20206;-68
2022/08/05 07:50:09;;;;;;;6.95;1.85;;;;;;;28.70;41.47;96652.13;2075975;28;20209;-68
2022/08/05 08:23:46;;;;;;;5.40;1.60;;;;;;;28.79;39.22;96613.41;2102727;27;20551;-69
2022/08/05 08:25:05;;;;;;;3.67;1.35;;;;;;;29.12;38.84;96621.09;2097317;28;20232;-70
2022/08/05 08:26:18;;;;;;;5.20;1.60;;;;;;;29.02;38.59;96617.84;2098247;28;20203;-69
2022/08/05 08:27:30;;;;;;;1.90;1.25;;;;;;;29.15;38.77;96612.66;2085434;28;20237;-70
2022/08/05 08:28:42;;;;;;;3.20;2.05;;;;;;;29.44;38.17;96610.97;2079346;28;20221;-70
2022/08/05 08:30:00;;;;;;;5.20;1.77;;;;;;;29.62;37.32;96604.34;2082403;28;20197;-70
2022/08/05 08:31:20;;;;;;;4.93;2.10;;;;;;;29.44;38.13;96602.91;2084251;28;20197;-70
2022/08/05 08:32:22;;;;;;;3.58;1.40;;;;;;;29.60;37.93;96601.03;2077752;28;20224;-70
2022/08/05 08:33:28;;;;;;;3.35;2.00;;;;;;;29.62;38.18;96597.13;2074969;28;20230;-70
2022/08/05 08:34:38;;;;;;;2.10;1.58;;;;;;;29.00;38.47;96603.75;2073721;28;20574;-70
2022/08/05 08:35:39;;;;;;;3.85;1.80;;;;;;;28.79;39.10;96599.16;2074421;28;20293;-70
2022/08/05 08:36:54;;;;;;;3.15;1.70;;;;;;;28.71;40.00;96593.84;2077620;28;20684;-70
2022/08/05 08:38:05;;;;;;;3.08;1.25;;;;;;;28.75;39.50;96603.22;2076429;28;20233;-70
2022/08/05 08:39:07;;;;;;;3.17;2.00;;;;;;;28.64;39.53;96599.91;2078585;28;20693;-70
2022/08/05 08:40:16;;;;;;;4.10;1.50;;;;;;;28.49;39.71;96591.88;2083156;28;20205;-70
2022/08/05 08:41:25;;;;;;;3.30;1.70;;;;;;;28.44;39.82;96594.28;2079727;28;20197;-70
2022/08/05 08:42:50;;;;;;;4.50;1.77;;;;;;;28.80;39.17;96592.75;2082483;28;20225;-70
2022/08/05 08:43:54;;;;;;;3.47;1.98;;;;;;;28.78;39.36;96587.56;2083904;28;20546;-71
2022/08/05 08:45:17;;;;;;;3.75;1.88;;;;;;;29.23;38.32;96586.69;2081174;28;20215;-70
2022/08/05 08:46:31;;;;;;;3.58;1.65;;;;;;;29.43;38.57;96592.34;2078997;28;20566;-70
2022/08/05 08:47:33;;;;;;;5.05;2.10;;;;;;;29.75;38.43;96590.19;2080166;28;20232;-70
2022/08/05 08:48:57;;;;;;;2.63;1.80;;;;;;;29.96;37.85;96576.78;2083319;28;20202;-70
2022/08/05 08:50:19;;;;;;;4.63;1.90;;;;;;;30.04;37.36;96593.81;2080856;28;20434;-71
2022/08/05 08:51:35;;;;;;;5.53;1.83;;;;;;;30.09;37.01;96597.63;2081882;28;20928;-71
2022/08/05 08:53:04;;;;;;;4.55;1.80;;;;;;;29.99;37.73;96590.88;2080381;28;20264;-71
2022/08/05 08:54:12;;;;;;;5.80;2.00;;;;;;;29.76;37.62;96575.72;2080972;28;20669;-70
2022/08/05 08:55:14;;;;;;;3.22;1.90;;;;;;;29.59;37.40;96581.34;2081675;28;20256;-70
2022/08/05 08:56:38;;;;;;;4.90;1.33;;;;;;;29.79;37.67;96578.88;2081198;28;20204;-70
2022/08/05 08:57:49;;;;;;;4.00;1.90;;;;;;;29.75;37.48;96563.28;2082376;28;20788;-70
2022/08/05 08:58:59;;;;;;;4.15;1.77;;;;;;;29.88;37.81;96568.00;2083925;28;20950;-70
2022/08/05 09:00:10;;;;;;;3.30;1.65;;;;;;;30.52;36.09;96580.56;2080488;28;20252;-71
2022/08/05 09:01:17;;;;;;;3.40;1.90;;;;;;;29.94;36.95;96578.00;2082065;28;20332;-70
2022/08/05 09:02:22;;;;;;;7.60;1.63;;;;;;;29.61;37.26;96567.72;2079069;28;20213;-70
2022/08/05 09:03:27;;;;;;;2.03;1.40;;;;;;;29.96;37.48;96576.78;2080291;28;20456;-69
2022/08/05 09:04:46;;;;;;;5.80;1.70;;;;;;;30.29;36.24;96575.41;2077864;28;20424;-71
2022/08/05 09:06:07;;;;;;;5.50;1.90;;;;;;;30.54;36.14;96569.63;2078177;28;20435;-71
2022/08/05 09:07:17;;;;;;;2.40;1.30;;;;;;;30.56;36.12;96576.47;2080479;28;20826;-70
2022/08/05 09:08:28;;;;;;;2.63;1.93;;;;;;;29.86;37.28;96564.66;2080912;28;20906;-71
2022/08/05 09:09:31;;;;;;;4.93;1.47;;;;;;;30.40;36.72;96557.91;2076561;28;20439;-70
2022/08/05 09:10:39;;;;;;;4.17;1.83;;;;;;;30.45;36.38;96558.97;2076313;28;20433;-70
2022/08/05 09:11:40;;;;;;;3.90;2.27;;;;;;;30.90;36.03;96563.19;2083993;28;20514;-71
2022/08/05 09:12:55;;;;;;;3.93;1.90;;;;;;;31.01;35.67;96561.78;2084085;28;20473;-70
2022/08/05 09:14:05;;;;;;;8.70;1.50;;;;;;;30.53;35.79;96562.56;2080055;28;20431;-71
2022/08/05 09:15:27;;;;;;;3.70;1.77;;;;;;;30.84;35.61;96558.59;2077765;28;20434;-71
2022/08/05 09:16:31;;;;;;;3.50;1.77;;;;;;;30.70;35.36;96557.69;2084439;28;20430;-71
2022/08/05 09:17:32;;;;;;;4.43;1.20;;;;;;;30.70;35.49;96555.84;2078289;28;20459;-71
2022/08/05 09:18:43;;;;;;;11.00;1.73;;;;;;;30.64;35.50;96545.84;2080302;28;20417;-71
2022/08/05 09:19:44;;;;;;;4.70;1.70;;;;;;;30.56;35.55;96543.31;2079584;28;20438;-71
2022/08/05 09:21:04;;;;;;;7.13;1.63;;;;;;;30.79;35.38;96548.41;2079009;28;20890;-70
2022/08/05 09:22:12;;;;;;;4.27;1.50;;;;;;;30.95;35.02;96550.78;2076967;28;20431;-71
2022/08/05 09:23:22;;;;;;;4.50;2.00;;;;;;;30.76;35.28;96552.34;2080943;28;20467;-71
2022/08/05 09:24:27;;;;;;;2.70;1.30;;;;;;;30.77;35.40;96550.50;2082874;28;20436;-71
2022/08/05 09:25:32;;;;;;;4.87;1.80;;;;;;;30.41;35.84;96540.69;2077969;28;20807;-71
2022/08/05 09:26:56;;;;;;;6.80;1.53;;;;;;;30.24;35.80;96545.53;2080424;28;20472;-71
2022/08/05 09:28:09;;;;;;;12.70;1.70;;;;;;;30.50;35.51;96546.78;2083001;28;20802;-71
2022/08/05 09:29:13;;;;;;;3.73;1.73;;;;;;;30.08;35.73;96547.50;2083741;28;20440;-70
2022/08/05 09:30:19;;;;;;;4.17;1.40;;;;;;;30.09;35.90;96546.47;2083664;28;20456;-71
2022/08/05 09:31:24;;;;;;;2.30;1.67;;;;;;;29.70;36.27;96538.81;2081015;28;20456;-71
2022/08/05 09:32:45;;;;;;;7.13;1.40;;;;;;;29.63;36.95;96542.28;2075330;28;20459;-71
2022/08/05 09:33:57;;;;;;;4.20;1.63;;;;;;;29.74;36.46;96534.75;2069908;28;20424;-71
2022/08/05 09:35:00;;;;;;;6.23;1.80;;;;;;;29.87;36.32;96547.50;2065881;28;20943;-71
2022/08/05 09:36:04;;;;;;;4.65;1.90;;;;;;;29.98;36.22;96541.63;2065993;28;20456;-71
2022/08/05 09:37:23;;;;;;;4.45;2.10;;;;;;;30.62;35.64;96537.13;2066860;28;20201;-70
2022/08/05 09:38:59;;;;;;;8.27;2.40;;;;;;;31.58;34.62;96539.00;2069472;28;20211;-70
2022/08/05 09:40:03;;;;;;;2.70;1.77;;;;;;;31.40;34.07;96547.69;2060938;28;20438;-70
2022/08/05 09:41:08;;;;;;;1.93;1.40;;;;;;;31.60;33.98;96549.59;2061550;28;20440;-70
2022/08/05 09:42:10;;;;;;;4.90;1.43;;;;;;;31.54;34.23;96553.94;2064952;28;20429;-70
2022/08/05 09:43:34;;;;;;;2.10;1.30;;;;;;;31.26;33.96;96551.34;2065704;28;20492;-71
2022/08/05 09:44:47;;;;;;;6.10;2.00;;;;;;;30.77;35.32;96548.63;2067883;28;20441;-71
2022/08/05 09:45:51;;;;;;;4.30;1.63;;;;;;;31.00;34.76;96546.66;2067881;28;20441;-71
2022/08/05 09:47:14;;;;;;;3.73;1.77;;;;;;;30.90;34.50;96539.75;2068587;28;20443;-70
2022/08/05 09:48:25;;;;;;;6.10;1.93;;;;;;;30.86;34.82;96549.28;2063163;28;20827;-71
2022/08/05 09:49:28;;;;;;;5.90;1.80;;;;;;;30.89;34.84;96548.91;2068391;28;20463;-70
2022/08/05 09:50:55;;;;;;;2.63;1.40;;;;;;;31.08;34.35;96543.81;2069497;28;20915;-70
2022/08/05 09:51:57;;;;;;;3.20;1.80;;;;;;;31.12;34.32;96549.66;2068064;28;21124;-71
2022/08/05 09:52:59;;;;;;;6.10;1.70;;;;;;;31.10;34.50;96555.25;2065793;28;20930;-71
2022/08/05 09:54:04;;;;;;;2.50;1.37;;;;;;;30.97;34.80;96555.97;2063748;28;20431;-71
2022/08/05 09:55:08;;;;;;;2.60;1.70;;;;;;;31.23;34.00;96557.16;2067877;28;20439;-71
2022/08/05 09:56:34;;;;;;;5.10;1.40;;;;;;;31.13;33.97;96551.31;2066763;28;21111;-71
2022/08/05 09:57:41;;;;;;;5.63;1.93;;;;;;;31.64;33.04;96556.25;2062913;28;20478;-71
2022/08/05 09:59:16;;;;;;;3.37;1.47;;;;;;;31.87;33.05;96546.97;2068188;28;20433;-71
2022/08/05 10:00:20;;;;;;;2.40;1.90;;;;;;;32.25;32.25;96554.47;2070148;28;20438;-70
2022/08/05 10:01:28;;;;;;;4.67;2.40;;;;;;;32.44;32.05;96551.97;2066784;28;20434;-72
2022/08/05 10:02:35;;;;;;;6.03;1.67;;;;;;;31.73;33.16;96546.97;2065937;28;20480;-67
2022/08/05 10:03:52;;;;;;;2.50;1.63;;;;;;;30.99;33.69;96553.91;2066649;28;21062;-67
2022/08/05 10:05:06;;;;;;;3.10;1.60;;;;;;;31.83;32.84;96545.72;2065390;28;20442;-67
2022/08/05 10:06:09;;;;;;;1.93;1.33;;;;;;;31.86;32.51;96556.13;2062820;28;20495;-67
2022/08/05 10:07:16;;;;;;;2.40;1.20;;;;;;;32.07;32.70;96547.81;2063315;28;20430;-67
2022/08/05 10:33:41;;;;;;;2.80;1.43;;;;;;;32.07;32.30;96533.47;2091943;27;20581;-66
2022/08/05 10:34:44;;;;;;;5.63;1.40;;;;;;;31.59;32.82;96529.03;2087196;28;20451;-66
2022/08/05 10:35:49;;;;;;;8.23;1.50;;;;;;;30.92;33.41;96532.31;2087030;28;20431;-66
2022/08/05 10:37:01;;;;;;;2.33;1.37;;;;;;;31.79;33.06;96529.09;2085944;28;20433;-66
2022/08/05 10:38:04;;;;;;;3.53;1.50;;;;;;;32.32;31.93;96524.78;2078574;28;20545;-67
2022/08/05 10:39:32;;;;;;;2.27;1.47;;;;;;;32.95;31.11;96526.09;2077078;28;20430;-66
2022/08/05 10:41:05;;;;;;;2.67;1.50;;;;;;;33.08;31.35;96534.19;2078935;28;20462;-67
2022/08/05 10:42:15;;;;;;;2.53;1.60;;;;;;;32.97;30.93;96532.94;2084692;28;20429;-66
2022/08/05 10:43:45;;;;;;;4.40;1.30;;;;;;;33.01;30.85;96531.50;2075666;28;20460;-67
2022/08/05 10:44:50;;;;;;;4.33;1.60;;;;;;;32.54;30.55;96506.44;2070590;28;20503;-65
2022/08/05 10:45:56;;;;;;;4.47;1.50;;;;;;;32.69;30.99;96530.53;2069965;28;21208;-65
2022/08/05 10:47:11;;;;;;;3.00;1.60;;;;;;;33.25;30.41;96529.09;2069357;28;20435;-65
2022/08/05 10:48:35;;;;;;;7.13;1.83;;;;;;;33.94;29.77;96534.78;2067064;28;21196;-65
2022/08/05 10:50:15;;;;;;;3.30;1.17;;;;;;;34.47;28.92;96540.81;2069630;28;20435;-65
2022/08/05 10:51:48;;;;;;;3.43;1.23;;;;;;;33.43;29.88;96541.09;2070060;28;20443;-65
2022/08/05 10:53:01;;;;;;;1.63;1.20;;;;;;;33.07;30.42;96527.09;2077901;28;20442;-65
2022/08/05 10:54:04;;;;;;;3.37;1.37;;;;;;;32.76;31.07;96533.22;2078212;28;21015;-65
2022/08/05 10:55:23;;;;;;;2.57;1.37;;;;;;;33.67;30.23;96526.81;2078135;28;20484;-65
2022/08/05 10:56:28;;;;;;;3.00;1.60;;;;;;;33.72;29.87;96533.44;2078309;28;20430;-64
2022/08/05 10:57:30;;;;;;;3.27;1.63;;;;;;;33.78;29.84;96529.88;2073417;28;21034;-65
2022/08/05 10:58:45;;;;;;;9.40;1.30;;;;;;;33.69;29.73;96532.81;2070519;28;20427;-65
2022/08/05 11:00:17;;;;;;;2.67;1.43;;;;;;;33.65;29.18;96530.78;2070103;28;20442;-65
2022/08/05 11:01:37;;;;;;;4.77;2.27;;;;;;;33.97;29.01;96528.91;2071208;28;21099;-65
2022/08/05 11:03:04;;;;;;;4.00;1.87;;;;;;;33.38;29.65;96528.22;2070299;28;21006;-65
2022/08/05 11:04:26;;;;;;;4.30;1.43;;;;;;;33.41;30.42;96524.25;2070502;28;20831;-65
2022/08/05 11:05:32;;;;;;;2.30;1.50;;;;;;;34.20;29.08;96532.09;2069739;28;20486;-65
2022/08/05 11:07:05;;;;;;;3.97;1.17;;;;;;;34.22;29.18;96530.81;2069913;28;20435;-64
2022/08/05 11:08:09;;;;;;;3.83;1.47;;;;;;;34.08;29.26;96538.22;2063792;28;20467;-65
2022/08/05 11:09:47;;;;;;;4.77;1.30;;;;;;;33.09;30.04;96535.84;2069403;28;20436;-65
2022/08/05 11:10:48;;;;;;;6.17;1.67;;;;;;;33.11;30.40;96532.91;2070514;28;20906;-65
2022/08/05 11:12:02;;;;;;;6.63;1.47;;;;;;;33.38;29.92;96536.34;2069491;28;20905;-65
2022/08/05 11:13:05;;;;;;;2.23;1.40;;;;;;;33.80;29.48;96530.47;2070571;28;20428;-65
2022/08/05 11:14:07;;;;;;;2.40;1.67;;;;;;;33.44;29.54;96532.78;2070398;28;20988;-65
2022/08/05 11:15:15;;;;;;;2.90;1.23;;;;;;;33.32;29.77;96531.78;2069930;28;20443;-66
2022/08/05 11:16:22;;;;;;;2.63;1.40;;;;;;;32.76;30.78;96534.09;2068793;28;20485;-65
2022/08/05 11:17:37;;;;;;;3.77;1.40;;;;;;;33.66;29.25;96524.31;2069872;28;20542;-65
2022/08/05 11:19:30;;;;;;;4.07;1.13;;;;;;;34.59;28.70;96538.19;2070073;28;20432;-65
2022/08/05 11:20:53;;;;;;;3.43;1.43;;;;;;;35.26;27.39;96538.31;2070521;28;20420;-64
2022/08/05 11:22:15;;;;;;;1.80;1.30;;;;;;;34.99;27.80;96537.78;2070716;28;21327;-65
2022/08/05 11:23:51;;;;;;;3.60;1.47;;;;;;;35.09;27.54;96526.41;2077252;28;20451;-65
2022/08/05 11:25:31;;;;;;;3.23;1.10;;;;;;;35.69;26.97;96536.47;2077588;28;20432;-65
2022/08/05 11:27:28;;;;;;;4.27;1.77;;;;;;;35.48;27.11;96546.78;2078073;28;20470;-64
2022/08/05 11:28:51;;;;;;;2.10;1.37;;;;;;;35.66;26.76;96539.66;2069575;28;20459;-65
2022/08/05 11:29:58;;;;;;;7.13;1.60;;;;;;;35.35;27.51;96538.81;2070318;28;20974;-65
2022/08/05 11:31:00;;;;;;;3.93;1.83;;;;;;;35.37;27.07;96539.44;2068554;28;20435;-65
2022/08/05 11:32:27;;;;;;;1.47;1.30;;;;;;;35.63;27.40;96545.53;2069999;28;20483;-65
2022/08/05 11:33:45;;;;;;;1.70;1.10;;;;;;;35.59;26.85;96531.63;2069363;28;20562;-65
2022/08/05 11:34:48;;;;;;;3.63;1.57;;;;;;;35.32;27.35;96539.25;2070461;28;20432;-64
2022/08/05 11:36:06;;;;;;;4.37;1.53;;;;;;;34.50;28.18;96534.97;2070074;28;20451;-65
2022/08/05 11:37:09;;;;;;;1.73;1.17;;;;;;;34.38;28.57;96528.59;2069814;28;20484;-64
2022/08/05 11:38:42;;;;;;;1.93;1.50;;;;;;;34.49;28.52;96530.59;2070489;28;20439;-64
2022/08/05 11:39:51;;;;;;;4.90;1.60;;;;;;;35.41;27.79;96531.66;2069725;28;20419;-65
2022/08/05 11:40:59;;;;;;;2.27;1.37;;;;;;;34.16;29.14;96518.16;2070063;28;20471;-65
2022/08/05 11:42:21;;;;;;;2.30;1.27;;;;;;;34.25;29.57;96513.28;2070265;28;20442;-65
2022/08/05 11:43:29;;;;;;;5.70;2.00;;;;;;;34.79;28.24;96519.00;2070679;28;20459;-64
2022/08/05 11:45:03;;;;;;;2.77;1.27;;;;;;;35.17;27.88;96530.69;2066439;28;20432;-64
2022/08/05 11:46:06;;;;;;;1.83;1.30;;;;;;;35.33;27.78;96534.69;2064969;28;20433;-64
2022/08/05 11:47:28;;;;;;;7.87;1.40;;;;;;;35.80;27.24;96519.38;2063816;28;20444;-65
2022/08/05 11:48:49;;;;;;;8.77;1.20;;;;;;;35.42;27.61;96523.28;2064491;28;20463;-64
2022/08/05 11:49:56;;;;;;;2.90;1.40;;;;;;;35.26;27.93;96518.47;2065586;28;20425;-65
2022/08/05 11:50:58;;;;;;;5.60;1.40;;;;;;;35.90;27.53;96512.59;2065033;28;20571;-65
2022/08/05 11:52:00;;;;;;;1.87;1.10;;;;;;;36.17;26.82;96525.75;2064314;28;20429;-65
2022/08/05 11:53:09;;;;;;;4.87;1.53;;;;;;;34.87;27.64;96521.44;2063658;28;20478;-65
2022/08/05 11:54:23;;;;;;;1.47;1.13;;;;;;;35.42;28.23;96533.31;2064748;28;20468;-65
2022/08/05 11:55:34;;;;;;;3.20;1.17;;;;;;;35.60;27.62;96529.72;2064628;28;20445;-65
2022/08/05 11:56:43;;;;;;;1.63;1.00;;;;;;;35.82;27.43;96532.75;2063954;28;20444;-65
2022/08/05 11:57:50;;;;;;;7.23;1.30;;;;;;;34.94;28.11;96530.31;2063474;28;20467;-64
2022/08/05 11:59:14;;;;;;;2.17;1.30;;;;;;;34.98;27.92;96528.00;2064684;28;20464;-65
2022/08/05 12:00:29;;;;;;;1.70;1.27;;;;;;;34.52;28.70;96522.00;2064820;28;20452;-64
2022/08/05 12:01:31;;;;;;;1.87;1.10;;;;;;;34.88;28.38;96523.13;2064334;28;20440;-65
2022/08/05 12:02:34;;;;;;;4.40;1.17;;;;;;;35.60;28.00;96521.56;2063953;28;20464;-65
2022/08/05 12:03:40;;;;;;;2.53;1.67;;;;;;;36.08;27.14;96519.84;2064242;28;20757;-65
2022/08/05 12:04:47;;;;;;;3.77;1.43;;;;;;;36.41;26.97;96527.44;2063903;28;20486;-65
2022/08/05 12:06:02;;;;;;;1.70;1.20;;;;;;;35.93;26.92;96518.38;2064386;28;20523;-65
2022/08/05 12:07:07;;;;;;;11.13;1.40;;;;;;;36.07;27.12;96510.00;2063259;28;20433;-68
2022/08/05 12:08:09;;;;;;;2.73;1.50;;;;;;;35.94;27.36;96511.88;2064669;28;21112;-68
2022/08/05 12:09:22;;;;;;;4.00;1.00;;;;;;;35.92;26.96;96515.91;2064330;28;20440;-68
2022/08/05 12:10:44;;;;;;;1.30;1.00;;;;;;;36.45;26.88;96517.72;2063991;28;20436;-68
2022/08/05 12:11:49;;;;;;;1.50;1.30;;;;;;;36.98;26.25;96522.44;2064217;28;20823;-68
2022/08/05 12:12:51;;;;;;;2.03;1.23;;;;;;;36.43;26.45;96513.59;2064220;28;20468;-68
2022/08/05 12:14:10;;;;;;;1.37;1.00;;;;;;;36.57;26.59;96520.47;2063949;28;20794;-68
2022/08/05 12:15:21;;;;;;;2.90;1.17;;;;;;;36.95;26.53;96517.47;2071139;28;20905;-64
2022/08/05 12:16:41;;;;;;;3.70;0.97;;;;;;;37.24;25.67;96513.72;2068635;28;20432;-65
2022/08/05 12:17:47;;;;;;;1.60;1.17;;;;;;;37.33;25.62;96506.03;2063904;28;20457;-68
2022/08/05 12:19:10;;;;;;;3.47;1.00;;;;;;;37.46;25.35;96514.94;2063460;28;20437;-68
2022/08/05 12:20:33;;;;;;;1.20;1.00;;;;;;;37.16;25.83;96510.56;2064088;28;20463;-68
2022/08/05 12:21:42;;;;;;;1.77;0.90;;;;;;;35.90;26.67;96512.59;2064544;28;20478;-68
2022/08/05 12:22:46;;;;;;;2.73;1.03;;;;;;;36.18;27.40;96517.34;2062858;28;21453;-69
2022/08/05 12:24:01;;;;;;;2.40;1.37;;;;;;;36.15;26.94;96506.13;2064254;28;20468;-68
2022/08/05 12:25:06;;;;;;;2.33;1.37;;;;;;;36.67;26.79;96502.72;2063593;28;20507;-68
2022/08/05 12:26:08;;;;;;;1.53;1.07;;;;;;;37.08;26.20;96509.03;2063723;28;20862;-68
2022/08/05 12:27:17;;;;;;;3.70;1.40;;;;;;;37.16;26.15;96505.13;2063763;28;20436;-70
2022/08/05 12:28:32;;;;;;;3.40;1.87;;;;;;;37.42;25.78;96503.72;2071105;28;20436;-70
2022/08/05 12:29:34;;;;;;;5.97;4.00;;;;;;;37.63;25.50;96509.56;2069622;28;20432;-69
2022/08/05 12:30:39;;;;;;;2.47;1.50;;;;;;;37.20;25.88;96492.66;2063473;28;20439;-69
2022/08/05 12:31:56;;;;;;;1.60;1.30;;;;;;;37.08;25.75;96507.13;2063904;28;20519;-70
2022/08/05 12:32:58;;;;;;;1.50;0.90;;;;;;;36.79;26.58;96500.81;2062468;28;20473;-70
2022/08/05 12:34:22;;;;;;;2.23;1.50;;;;;;;36.96;26.03;96503.63;2064178;28;20527;-67
2022/08/05 12:35:26;;;;;;;1.30;1.00;;;;;;;36.50;26.65;96505.34;2063874;28;20436;-67
2022/08/05 12:36:41;;;;;;;1.17;1.03;;;;;;;36.61;26.78;96499.88;2064230;28;20428;-67
2022/08/05 12:37:45;;;;;;;2.43;1.10;;;;;;;36.70;26.48;96494.09;2063125;28;20491;-66
2022/08/05 12:38:48;;;;;;;1.30;0.90;;;;;;;36.97;25.94;96502.56;2063766;28;20491;-67
2022/08/05 12:39:51;;;;;;;3.00;1.20;;;;;;;37.18;26.16;96498.38;2064466;28;20504;-67
2022/08/05 12:40:56;;;;;;;1.17;0.97;;;;;;;36.98;25.95;96500.69;2064309;28;20428;-67
2022/08/05 12:42:00;;;;;;;1.70;1.13;;;;;;;36.80;26.30;96505.19;2064278;28;20428;-68
2022/08/05 12:43:05;;;;;;;1.20;1.00;;;;;;;36.19;26.74;96500.00;2064003;28;20445;-66
2022/08/05 12:44:12;;;;;;;1.33;0.97;;;;;;;36.35;26.35;96501.16;2064323;28;20536;-66
2022/08/05 12:45:14;;;;;;;3.10;1.30;;;;;;;36.91;26.33;96501.63;2064293;28;20521;-67
2022/08/05 12:46:24;;;;;;;2.43;0.90;;;;;;;37.51;25.14;96505.00;2063953;28;20428;-68
2022/08/05 12:47:30;;;;;;;1.60;1.20;;;;;;;37.42;26.09;96501.00;2063796;28;20519;-67
2022/08/05 12:48:38;;;;;;;3.67;0.80;;;;;;;36.86;26.37;96508.84;2063798;28;20444;-67
2022/08/05 12:49:48;;;;;;;2.50;1.10;;;;;;;36.95;25.85;96509.31;2064098;28;20433;-67
2022/08/05 12:51:15;;;;;;;2.13;0.90;;;;;;;37.16;25.96;96505.94;2064302;28;20527;-67
2022/08/05 12:52:37;;;;;;;2.67;1.30;;;;;;;36.67;26.41;96506.28;2063187;28;20468;-67
2022/08/05 12:53:44;;;;;;;2.30;0.97;;;;;;;36.92;26.16;96516.06;2064329;28;20536;-67
2022/08/05 12:54:56;;;;;;;1.47;1.10;;;;;;;36.91;26.02;96512.53;2063807;28;20436;-67
2022/08/05 12:55:59;;;;;;;1.93;1.23;;;;;;;36.00;27.05;96503.84;2063958;28;20482;-66
2022/08/05 12:57:03;;;;;;;2.20;1.30;;;;;;;36.08;26.83;96511.69;2063252;28;20436;-69
2022/08/05 12:58:22;;;;;;;1.40;1.10;;;;;;;35.86;27.20;96505.94;2064389;28;20472;-70
2022/08/05 12:59:50;;;;;;;1.93;1.33;;;;;;;35.32;27.41;96506.69;2063971;28;20437;-66
2022/08/05 13:01:13;;;;;;;3.10;0.93;;;;;;;35.36;28.13;96504.38;2063759;28;20461;-67
2022/08/05 13:02:35;;;;;;;1.50;1.00;;;;;;;35.08;27.92;96506.56;2063789;28;20967;-67
2022/08/05 13:03:40;;;;;;;1.80;1.20;;;;;;;35.32;28.13;96503.97;2063620;28;20432;-67
2022/08/05 13:04:46;;;;;;;1.73;1.07;;;;;;;35.14;28.18;96513.81;2063760;28;20966;-67
2022/08/05 13:05:55;;;;;;;2.73;1.17;;;;;;;35.05;28.17;96507.03;2063154;28;20433;-67
2022/08/05 13:06:59;;;;;;;2.47;1.30;;;;;;;34.64;28.74;96511.22;2064420;28;20460;-67
2022/08/05 13:08:03;;;;;;;2.40;1.10;;;;;;;34.81;28.17;96506.88;2063898;28;20539;-67
2022/08/05 13:09:11;;;;;;;4.07;1.10;;;;;;;34.34;29.16;96510.06;2064053;28;20436;-67
2022/08/05 13:10:15;;;;;;;3.33;0.90;;;;;;;34.88;28.63;96512.28;2063576;28;20788;-70
2022/08/05 13:11:29;;;;;;;5.00;1.20;;;;;;;34.41;29.09;96509.19;2064385;28;20460;-70
2022/08/05 13:12:51;;;;;;;4.50;1.00;;;;;;;34.64;28.79;96505.81;2063669;28;20453;-70
2022/08/05 13:13:58;;;;;;;2.43;1.60;;;;;;;35.08;28.58;96517.44;2064014;28;20499;-70
2022/08/05 13:15:13;;;;;;;3.00;1.27;;;;;;;35.08;28.46;96512.00;2062522;28;20445;-70
2022/08/05 13:16:24;;;;;;;1.87;1.23;;;;;;;35.33;28.65;96512.97;2064257;28;20915;-70
2022/08/05 13:17:30;;;;;;;2.10;1.67;;;;;;;35.25;28.65;96514.94;2063664;28;21018;-70
2022/08/05 13:18:53;;;;;;;2.23;1.23;;;;;;;34.77;28.98;96508.38;2063133;28;21041;-70
2022/08/05 13:20:03;;;;;;;2.50;1.43;;;;;;;34.82;28.98;96516.66;2064162;28;20429;-70
2022/08/05 13:21:04;;;;;;;4.00;1.30;;;;;;;35.22;28.33;96509.94;2063096;28;20824;-71
2022/08/05 13:22:06;;;;;;;2.00;1.10;;;;;;;35.16;28.57;96516.31;2063686;28;20432;-70
2022/08/05 13:23:12;;;;;;;1.57;1.27;;;;;;;35.27;28.22;96511.97;2063970;28;20444;-70
2022/08/05 13:24:18;;;;;;;1.73;1.23;;;;;;;35.06;28.47;96516.84;2064269;28;20952;-66
2022/08/05 13:25:39;;;;;;;2.27;1.03;;;;;;;34.32;29.75;96514.88;2063883;28;20425;-67
2022/08/05 13:26:59;;;;;;;1.67;1.00;;;;;;;34.25;30.00;96514.09;2062721;28;20530;-67
2022/08/05 13:28:03;;;;;;;5.13;1.07;;;;;;;34.62;29.29;96511.47;2063989;28;20432;-67
2022/08/05 13:29:05;;;;;;;6.10;0.97;;;;;;;34.31;29.51;96517.78;2064234;28;20936;-67
2022/08/05 13:30:10;;;;;;;1.87;1.37;;;;;;;34.14;30.18;96521.06;2063969;28;20942;-67
2022/08/05 13:31:31;;;;;;;3.70;1.03;;;;;;;33.55;30.73;96506.91;2063363;28;21017;-67
2022/08/05 13:32:53;;;;;;;1.80;1.30;;;;;;;33.65;30.74;96517.22;2062655;28;20863;-67